Falmouth Foreside, Maine
Current Conditions -  °F | °C
As of 2:51 AM on Friday 21 Nov 2014 (Local Time) from KPWM Reporting Station
Clear Clear  
Wind Chill: 21°   Ceiling: Unl
Heat Index: 28°   Visibility: 10mi
Dew Point: 11°   Wind: 7mph
Humidity: 49%   Direction: 260°W
Pressure: 29.87"   Gusts: NA
Location:  43.7506°N, 70.2845°W
Report Text: KPWM 210751Z 26006KT 10SM CLR M02/M12 A2987 RMK AO2 SLP115 T10221117
Loading
Personal Weather Stations






























Interactive Weather Map New forecast layout! Learn more

10-Day Weather Forecast

Advertisements
Track Severe Weather on mobile